createdAt,value
2018-07-09T07:26:30.064Z,43.25
2018-07-09T07:27:32.511Z,43.39
2018-07-09T07:28:35.031Z,43.87
2018-07-09T07:29:37.473Z,43.37
2018-07-09T07:30:39.909Z,42.79
2018-07-09T07:31:42.674Z,42.98
2018-07-09T07:32:45.125Z,43.19
2018-07-09T07:33:47.578Z,41.90
2018-07-09T07:34:50.035Z,42.69
2018-07-09T07:35:52.469Z,42.24
2018-07-09T07:36:54.943Z,41.34
2018-07-09T07:37:57.401Z,41.63
2018-07-09T07:39:00.613Z,41.78
2018-07-09T07:40:03.041Z,41.87
2018-07-09T07:41:06.161Z,41.46
2018-07-09T07:42:08.589Z,41.47
2018-07-09T07:43:11.346Z,41.42
2018-07-09T07:44:13.816Z,42.30
2018-07-09T07:45:17.181Z,41.67
2018-07-09T07:46:19.615Z,41.79
2018-07-09T07:47:22.051Z,42.08
2018-07-09T07:48:24.581Z,42.03
2018-07-09T07:49:27.378Z,41.91
2018-07-09T07:50:29.951Z,41.37
2018-07-09T07:51:32.312Z,42.34
2018-07-09T07:52:34.739Z,42.29
2018-07-09T07:53:37.244Z,41.54
2018-07-09T07:54:40.489Z,42.21
2018-07-09T07:55:43.386Z,41.29
2018-07-09T07:56:45.851Z,42.12
2018-07-09T07:57:48.349Z,41.66
2018-07-09T07:58:50.775Z,42.15
2018-07-09T07:59:53.209Z,41.76
2018-07-09T08:00:55.669Z,41.34
2018-07-09T08:01:58.556Z,40.88
2018-07-09T08:03:01.017Z,41.00
2018-07-09T08:04:03.947Z,40.87
2018-07-09T08:05:06.431Z,40.50
2018-07-09T08:06:10.642Z,41.49
2018-07-09T08:07:13.337Z,41.12
2018-07-09T08:08:16.078Z,40.92
2018-07-09T08:09:18.590Z,40.54
2018-07-09T08:10:20.983Z,40.91
2018-07-09T08:11:47.724Z,40.37
2018-07-09T08:13:58.694Z,40.60
2018-07-09T08:15:01.553Z,40.74
2018-07-09T08:16:04.049Z,41.45
2018-07-09T08:17:07.482Z,40.92
2018-07-09T08:18:10.670Z,41.50
2018-07-09T08:19:14.216Z,41.19
2018-07-09T08:20:16.711Z,41.02
2018-07-09T08:21:19.676Z,41.31
2018-07-09T08:22:22.570Z,40.88
2018-07-09T08:23:25.231Z,40.96
2018-07-09T08:24:27.717Z,40.96
2018-07-09T08:25:30.226Z,40.58
2018-07-09T09:06:48.382Z,42.44
2018-07-09T09:07:51.053Z,43.23
2018-07-09T09:08:53.529Z,42.00
2018-07-09T09:09:55.988Z,42.11
2018-07-09T09:10:58.409Z,41.89
2018-07-09T09:12:01.302Z,42.77
2018-07-09T09:13:03.791Z,42.49
2018-07-09T09:14:06.215Z,42.49
2018-07-09T09:15:08.640Z,42.24
2018-07-09T09:16:11.185Z,41.43
2018-07-09T09:17:13.640Z,41.44
2018-07-09T09:18:18.663Z,41.65
2018-07-09T09:19:21.126Z,41.79
2018-07-09T09:20:23.548Z,41.54
2018-07-09T09:21:25.975Z,42.25
2018-07-09T09:22:28.434Z,41.56
2018-07-09T09:23:32.063Z,41.74
2018-07-09T09:24:35.821Z,41.67
2018-07-09T09:25:39.342Z,41.56
2018-07-09T09:26:41.781Z,41.74
2018-07-09T09:27:44.209Z,41.71
2018-07-09T09:28:46.787Z,41.95
2018-07-09T09:29:51.290Z,41.41
2018-07-09T09:30:55.440Z,41.72
2018-07-09T09:31:57.894Z,41.57
2018-07-09T09:33:00.509Z,42.27
2018-07-09T09:34:03.832Z,42.33
2018-07-09T09:35:07.434Z,41.70
2018-07-09T09:36:10.512Z,41.41
2018-07-09T09:37:13.369Z,41.66
2018-07-09T09:38:16.452Z,41.37
2018-07-09T09:39:19.682Z,40.98
2018-07-09T09:40:22.706Z,41.59
2018-07-09T09:41:25.178Z,41.48
2018-07-09T09:42:28.141Z,41.72
2018-07-09T09:43:31.057Z,41.06
2018-07-09T09:44:34.457Z,42.00
2018-07-09T09:45:36.884Z,41.97
2018-07-09T09:46:39.337Z,41.43
2018-07-09T09:47:41.795Z,41.92
2018-07-09T09:48:44.252Z,42.03
2018-07-09T09:49:47.101Z,42.35
2018-07-09T09:50:49.515Z,41.96
2018-07-09T09:51:51.951Z,41.95
2018-07-09T09:52:54.594Z,41.45
2018-07-09T09:53:57.078Z,42.05
2018-07-09T09:54:59.573Z,41.93
2018-07-09T09:56:02.338Z,41.68
2018-07-09T09:57:06.388Z,41.84
2018-07-09T09:58:09.473Z,42.05
2018-07-09T09:59:12.217Z,42.23
2018-07-09T10:00:15.541Z,42.12
2018-07-09T10:01:18.415Z,42.42
2018-07-09T10:02:21.604Z,42.38
2018-07-09T10:03:24.067Z,42.43
2018-07-09T10:04:26.498Z,42.24
2018-07-09T10:05:28.964Z,42.00
2018-07-09T10:06:31.433Z,42.11
2018-07-09T10:07:34.559Z,42.47
2018-07-09T10:08:37.374Z,41.79
2018-07-09T10:09:39.923Z,41.51
2018-07-09T10:10:42.402Z,42.26
2018-07-09T10:11:44.859Z,41.49
2018-07-09T10:12:48.048Z,41.77
2018-07-09T10:13:50.869Z,42.12
2018-07-09T10:14:54.862Z,42.32
2018-07-09T10:15:57.569Z,41.48
2018-07-09T10:17:00.080Z,42.36
2018-07-09T10:18:04.333Z,42.30
2018-07-09T10:19:07.675Z,42.40
2018-07-09T10:20:10.129Z,42.15
2018-07-09T10:21:13.093Z,42.41
2018-07-09T10:22:15.640Z,42.13
2018-07-09T10:23:19.713Z,42.42
2018-07-09T10:24:22.263Z,41.69
2018-07-09T10:25:24.745Z,41.59
2018-07-09T10:26:27.288Z,41.88
2018-07-09T10:27:30.280Z,42.25
2018-07-09T10:28:32.748Z,42.47
2018-07-09T10:29:36.223Z,41.56
2018-07-09T10:30:38.724Z,41.61
2018-07-09T10:31:41.268Z,41.88
2018-07-09T10:33:53.811Z,41.12
2018-07-09T10:34:56.241Z,42.00
2018-07-09T10:35:59.329Z,41.40
2018-07-09T10:37:02.550Z,42.18
2018-07-09T10:38:05.999Z,42.16
2018-07-09T10:39:08.430Z,41.24
2018-07-09T10:40:14.404Z,41.75
2018-07-09T10:41:16.868Z,42.05
2018-07-09T10:42:19.275Z,41.94
2018-07-09T10:43:21.723Z,41.32
2018-07-09T10:44:24.361Z,42.11
2018-07-09T10:45:29.039Z,41.86
2018-07-09T10:46:32.005Z,41.47
2018-07-09T10:47:34.431Z,41.21
2018-07-09T10:48:40.016Z,40.91
2018-07-09T10:49:45.663Z,41.68
2018-07-09T10:50:49.188Z,40.88
2018-07-09T10:51:51.639Z,41.21
2018-07-09T10:52:54.435Z,41.11
2018-07-09T10:53:59.824Z,41.71
2018-07-09T10:55:02.276Z,42.04
2018-07-09T10:56:06.090Z,41.78
2018-07-09T10:57:12.509Z,41.30
2018-07-09T10:58:15.759Z,41.70
2018-07-09T10:59:19.655Z,41.24
2018-07-09T11:00:22.840Z,41.79
2018-07-09T11:04:02.763Z,40.83
2018-07-09T11:05:08.318Z,41.32
2018-07-09T11:06:11.158Z,41.58
2018-07-09T20:36:41.503Z,45.72
2018-07-09T20:37:47.211Z,45.62
2018-07-09T20:39:40.375Z,45.44
2018-07-09T20:40:43.090Z,45.06
2018-07-09T20:41:46.215Z,44.87
2018-07-09T20:42:48.625Z,44.70
2018-07-09T20:43:51.071Z,43.73
2018-07-09T20:44:54.340Z,43.45
2018-07-09T20:45:56.760Z,43.22
2018-07-09T20:46:59.200Z,43.60
2018-07-09T20:48:06.456Z,43.29
2018-07-09T20:49:08.904Z,44.02
2018-07-09T20:50:12.373Z,43.16
2018-07-09T20:51:14.796Z,43.75
2018-07-09T20:52:17.268Z,42.95
2018-07-09T20:53:19.679Z,43.36
2018-07-09T20:54:24.515Z,43.71
2018-07-09T20:55:28.328Z,43.06
2018-07-09T20:56:33.017Z,43.61
2018-07-09T20:57:35.486Z,43.56
2018-07-09T20:58:38.972Z,44.06
2018-07-09T20:59:43.068Z,43.91
2018-07-09T21:00:47.303Z,43.28
2018-07-09T21:01:51.374Z,42.86
2018-07-09T21:02:53.986Z,43.19
2018-07-09T21:03:56.572Z,43.04
2018-07-09T21:04:59.203Z,44.05
2018-07-09T21:06:02.483Z,44.42
2018-07-09T21:07:06.396Z,44.12
2018-07-09T21:08:12.528Z,43.19
2018-07-09T21:09:15.591Z,43.90
2018-07-09T21:10:18.285Z,43.30
2018-07-09T21:11:20.801Z,43.78
2018-07-09T21:12:23.301Z,44.22
2018-07-09T21:13:27.346Z,43.99
2018-07-09T21:14:31.280Z,43.54
2018-07-09T21:15:33.906Z,43.62
2018-07-09T21:16:36.707Z,43.49
2018-07-09T21:17:39.433Z,43.33
2018-07-09T21:18:45.457Z,43.89
2018-07-09T21:19:48.331Z,44.46
2018-07-09T21:20:51.674Z,43.86
2018-07-09T21:21:59.556Z,44.07
2018-07-09T21:23:02.951Z,45.05
2018-07-09T21:24:05.408Z,44.96
2018-07-09T21:25:07.900Z,44.83
2018-07-09T21:26:11.258Z,43.57
2018-07-09T21:27:15.261Z,43.97
2018-07-09T21:28:18.410Z,44.14
2018-07-09T21:29:22.075Z,44.92
2018-07-09T21:30:25.302Z,44.03
2018-07-09T21:31:29.944Z,44.39
2018-07-09T21:33:41.726Z,44.44
2018-07-09T21:34:44.307Z,44.11
